sensor_id;sensor_type;location;lat;lon;timestamp;P1;durP1;ratioP1;P2;durP2;ratioP2
28353;SDS011;15603;50.878;8.036;2022-08-04T00:00:15;3.83;;;1.85;;
28353;SDS011;15603;50.878;8.036;2022-08-04T00:05:28;2.30;;;1.75;;
28353;SDS011;15603;50.878;8.036;2022-08-04T00:10:38;2.53;;;1.73;;
28353;SDS011;15603;50.878;8.036;2022-08-04T00:13:06;3.15;;;1.73;;
28353;SDS011;15603;50.878;8.036;2022-08-04T00:15:38;6.90;;;1.73;;
28353;SDS011;15603;50.878;8.036;2022-08-04T00:18:07;2.47;;;1.40;;
28353;SDS011;15603;50.878;8.036;2022-08-04T00:20:38;3.58;;;1.98;;
28353;SDS011;15603;50.878;8.036;2022-08-04T00:23:09;6.82;;;1.80;;
28353;SDS011;15603;50.878;8.036;2022-08-04T00:25:55;3.03;;;1.40;;
28353;SDS011;15603;50.878;8.036;2022-08-04T00:28:23;2.90;;;2.00;;
28353;SDS011;15603;50.878;8.036;2022-08-04T00:30:50;3.78;;;2.03;;
28353;SDS011;15603;50.878;8.036;2022-08-04T00:33:20;2.58;;;1.83;;
28353;SDS011;15603;50.878;8.036;2022-08-04T00:35:48;3.42;;;2.28;;
28353;SDS011;15603;50.878;8.036;2022-08-04T00:38:16;4.63;;;1.33;;
28353;SDS011;15603;50.878;8.036;2022-08-04T00:46:31;2.92;;;1.33;;
28353;SDS011;15603;50.878;8.036;2022-08-04T01:06:17;2.15;;;1.60;;
28353;SDS011;15603;50.878;8.036;2022-08-04T01:09:03;4.70;;;1.58;;
28353;SDS011;15603;50.878;8.036;2022-08-04T01:19:52;3.35;;;1.50;;
28353;SDS011;15603;50.878;8.036;2022-08-04T01:25:10;5.40;;;1.83;;
28353;SDS011;15603;50.878;8.036;2022-08-04T01:30:58;4.50;;;2.08;;
28353;SDS011;15603;50.878;8.036;2022-08-04T01:33:38;6.55;;;2.08;;
28353;SDS011;15603;50.878;8.036;2022-08-04T01:36:32;2.40;;;1.80;;
28353;SDS011;15603;50.878;8.036;2022-08-04T01:39:01;6.53;;;1.67;;
28353;SDS011;15603;50.878;8.036;2022-08-04T01:45:08;4.25;;;1.88;;
28353;SDS011;15603;50.878;8.036;2022-08-04T01:47:39;6.90;;;1.48;;
28353;SDS011;15603;50.878;8.036;2022-08-04T01:50:10;2.75;;;1.67;;
28353;SDS011;15603;50.878;8.036;2022-08-04T01:52:40;5.55;;;2.13;;
28353;SDS011;15603;50.878;8.036;2022-08-04T01:55:13;6.55;;;2.58;;
28353;SDS011;15603;50.878;8.036;2022-08-04T01:57:46;3.95;;;1.92;;
28353;SDS011;15603;50.878;8.036;2022-08-04T02:00:19;6.65;;;2.13;;
28353;SDS011;15603;50.878;8.036;2022-08-04T02:02:49;2.75;;;1.83;;
28353;SDS011;15603;50.878;8.036;2022-08-04T02:05:17;6.05;;;1.70;;
28353;SDS011;15603;50.878;8.036;2022-08-04T02:10:27;4.90;;;2.00;;
28353;SDS011;15603;50.878;8.036;2022-08-04T02:21:42;2.72;;;1.92;;
28353;SDS011;15603;50.878;8.036;2022-08-04T02:24:14;3.67;;;1.83;;
28353;SDS011;15603;50.878;8.036;2022-08-04T02:26:45;2.45;;;1.73;;
28353;SDS011;15603;50.878;8.036;2022-08-04T02:29:16;5.63;;;1.67;;
28353;SDS011;15603;50.878;8.036;2022-08-04T02:31:56;5.72;;;2.13;;
28353;SDS011;15603;50.878;8.036;2022-08-04T02:34:38;2.35;;;1.80;;
28353;SDS011;15603;50.878;8.036;2022-08-04T02:37:25;3.20;;;1.83;;
28353;SDS011;15603;50.878;8.036;2022-08-04T02:39:53;2.80;;;1.80;;
28353;SDS011;15603;50.878;8.036;2022-08-04T02:42:24;4.85;;;2.10;;
28353;SDS011;15603;50.878;8.036;2022-08-04T02:44:56;4.65;;;2.10;;
28353;SDS011;15603;50.878;8.036;2022-08-04T02:47:25;3.38;;;1.48;;
28353;SDS011;15603;50.878;8.036;2022-08-04T02:50:14;3.50;;;1.75;;
28353;SDS011;15603;50.878;8.036;2022-08-04T02:52:55;4.15;;;1.95;;
28353;SDS011;15603;50.878;8.036;2022-08-04T02:55:26;4.47;;;2.05;;
28353;SDS011;15603;50.878;8.036;2022-08-04T02:57:55;3.53;;;1.98;;
28353;SDS011;15603;50.878;8.036;2022-08-04T03:00:25;8.13;;;2.05;;
28353;SDS011;15603;50.878;8.036;2022-08-04T03:05:27;2.83;;;1.77;;
28353;SDS011;15603;50.878;8.036;2022-08-04T03:11:04;4.47;;;2.10;;
28353;SDS011;15603;50.878;8.036;2022-08-04T03:22:10;6.03;;;2.13;;
28353;SDS011;15603;50.878;8.036;2022-08-04T03:24:56;3.60;;;1.77;;
28353;SDS011;15603;50.878;8.036;2022-08-04T03:27:55;7.38;;;2.30;;
28353;SDS011;15603;50.878;8.036;2022-08-04T03:36:28;3.08;;;2.55;;
28353;SDS011;15603;50.878;8.036;2022-08-04T03:39:23;6.88;;;3.20;;
28353;SDS011;15603;50.878;8.036;2022-08-04T03:45:26;5.82;;;2.35;;
28353;SDS011;15603;50.878;8.036;2022-08-04T03:51:23;2.80;;;1.80;;
28353;SDS011;15603;50.878;8.036;2022-08-04T03:57:10;2.80;;;1.70;;
28353;SDS011;15603;50.878;8.036;2022-08-04T04:02:51;4.68;;;2.70;;
28353;SDS011;15603;50.878;8.036;2022-08-04T04:27:39;3.22;;;2.13;;
28353;SDS011;15603;50.878;8.036;2022-08-04T04:30:18;4.00;;;2.00;;
28353;SDS011;15603;50.878;8.036;2022-08-04T04:35:37;4.05;;;2.28;;
28353;SDS011;15603;50.878;8.036;2022-08-04T04:43:53;3.50;;;2.63;;
28353;SDS011;15603;50.878;8.036;2022-08-04T04:49:15;4.40;;;2.30;;
28353;SDS011;15603;50.878;8.036;2022-08-04T04:55:02;2.90;;;2.13;;
28353;SDS011;15603;50.878;8.036;2022-08-04T04:57:36;3.85;;;2.50;;
28353;SDS011;15603;50.878;8.036;2022-08-04T05:00:22;3.38;;;1.92;;
28353;SDS011;15603;50.878;8.036;2022-08-04T05:03:04;7.82;;;2.17;;
28353;SDS011;15603;50.878;8.036;2022-08-04T05:08:42;5.07;;;2.97;;
28353;SDS011;15603;50.878;8.036;2022-08-04T05:14:13;7.20;;;2.50;;
28353;SDS011;15603;50.878;8.036;2022-08-04T05:17:11;3.42;;;2.38;;
28353;SDS011;15603;50.878;8.036;2022-08-04T05:19:48;5.93;;;2.80;;
28353;SDS011;15603;50.878;8.036;2022-08-04T05:22:30;7.13;;;2.15;;
28353;SDS011;15603;50.878;8.036;2022-08-04T05:25:05;3.53;;;1.98;;
28353;SDS011;15603;50.878;8.036;2022-08-04T05:27:45;13.77;;;3.97;;
28353;SDS011;15603;50.878;8.036;2022-08-04T05:30:17;6.18;;;3.30;;
28353;SDS011;15603;50.878;8.036;2022-08-04T05:32:49;7.53;;;2.50;;
28353;SDS011;15603;50.878;8.036;2022-08-04T05:35:35;6.32;;;2.72;;
28353;SDS011;15603;50.878;8.036;2022-08-04T05:38:30;5.75;;;2.85;;
28353;SDS011;15603;50.878;8.036;2022-08-04T05:41:02;11.23;;;2.90;;
28353;SDS011;15603;50.878;8.036;2022-08-04T05:43:29;8.43;;;2.67;;
28353;SDS011;15603;50.878;8.036;2022-08-04T05:45:57;8.13;;;2.38;;
28353;SDS011;15603;50.878;8.036;2022-08-04T05:48:25;2.58;;;2.15;;
28353;SDS011;15603;50.878;8.036;2022-08-04T05:50:53;3.95;;;2.58;;
28353;SDS011;15603;50.878;8.036;2022-08-04T05:53:26;4.78;;;2.38;;
28353;SDS011;15603;50.878;8.036;2022-08-04T05:55:54;8.25;;;2.33;;
28353;SDS011;15603;50.878;8.036;2022-08-04T05:58:27;4.53;;;1.95;;
28353;SDS011;15603;50.878;8.036;2022-08-04T06:00:58;5.40;;;2.53;;
28353;SDS011;15603;50.878;8.036;2022-08-04T06:03:28;12.88;;;3.03;;
28353;SDS011;15603;50.878;8.036;2022-08-04T06:05:57;4.13;;;1.80;;
28353;SDS011;15603;50.878;8.036;2022-08-04T06:08:25;5.43;;;2.28;;
28353;SDS011;15603;50.878;8.036;2022-08-04T06:10:52;5.53;;;1.90;;
28353;SDS011;15603;50.878;8.036;2022-08-04T06:13:28;5.28;;;2.33;;
28353;SDS011;15603;50.878;8.036;2022-08-04T06:16:17;6.07;;;2.95;;
28353;SDS011;15603;50.878;8.036;2022-08-04T06:18:57;4.50;;;2.15;;
28353;SDS011;15603;50.878;8.036;2022-08-04T06:21:53;8.13;;;2.70;;
28353;SDS011;15603;50.878;8.036;2022-08-04T06:24:23;9.85;;;2.70;;
28353;SDS011;15603;50.878;8.036;2022-08-04T06:26:52;8.13;;;2.95;;
28353;SDS011;15603;50.878;8.036;2022-08-04T06:29:20;10.05;;;2.83;;
28353;SDS011;15603;50.878;8.036;2022-08-04T06:32:02;8.10;;;3.05;;
28353;SDS011;15603;50.878;8.036;2022-08-04T06:34:58;8.48;;;4.10;;
28353;SDS011;15603;50.878;8.036;2022-08-04T06:37:31;7.10;;;3.30;;
28353;SDS011;15603;50.878;8.036;2022-08-04T06:40:10;5.82;;;2.50;;
28353;SDS011;15603;50.878;8.036;2022-08-04T06:42:56;12.52;;;4.45;;
28353;SDS011;15603;50.878;8.036;2022-08-04T06:45:23;32.50;;;7.50;;
28353;SDS011;15603;50.878;8.036;2022-08-04T06:47:52;29.35;;;7.03;;
28353;SDS011;15603;50.878;8.036;2022-08-04T06:50:20;21.00;;;6.93;;
28353;SDS011;15603;50.878;8.036;2022-08-04T06:53:08;20.05;;;5.93;;
28353;SDS011;15603;50.878;8.036;2022-08-04T06:55:35;24.50;;;6.30;;
28353;SDS011;15603;50.878;8.036;2022-08-04T06:58:04;28.15;;;6.53;;
28353;SDS011;15603;50.878;8.036;2022-08-04T07:00:34;19.77;;;6.25;;
28353;SDS011;15603;50.878;8.036;2022-08-04T07:03:03;23.55;;;4.97;;
28353;SDS011;15603;50.878;8.036;2022-08-04T07:05:33;22.05;;;5.47;;
28353;SDS011;15603;50.878;8.036;2022-08-04T07:08:01;16.02;;;4.68;;
28353;SDS011;15603;50.878;8.036;2022-08-04T07:10:30;16.15;;;5.60;;
28353;SDS011;15603;50.878;8.036;2022-08-04T07:12:58;24.05;;;5.57;;
28353;SDS011;15603;50.878;8.036;2022-08-04T07:15:26;12.15;;;3.70;;
28353;SDS011;15603;50.878;8.036;2022-08-04T07:17:54;14.35;;;4.30;;
28353;SDS011;15603;50.878;8.036;2022-08-04T07:20:26;18.57;;;5.37;;
28353;SDS011;15603;50.878;8.036;2022-08-04T07:23:03;10.40;;;3.70;;
28353;SDS011;15603;50.878;8.036;2022-08-04T07:25:32;14.65;;;3.65;;
28353;SDS011;15603;50.878;8.036;2022-08-04T07:28:20;7.13;;;3.55;;
28353;SDS011;15603;50.878;8.036;2022-08-04T07:30:48;12.68;;;3.50;;
28353;SDS011;15603;50.878;8.036;2022-08-04T07:33:16;16.48;;;3.33;;
28353;SDS011;15603;50.878;8.036;2022-08-04T07:35:44;10.93;;;3.10;;
28353;SDS011;15603;50.878;8.036;2022-08-04T07:38:33;14.40;;;3.03;;
28353;SDS011;15603;50.878;8.036;2022-08-04T07:41:15;15.80;;;3.60;;
28353;SDS011;15603;50.878;8.036;2022-08-04T07:44:02;9.20;;;2.83;;
28353;SDS011;15603;50.878;8.036;2022-08-04T07:46:30;9.55;;;2.63;;
28353;SDS011;15603;50.878;8.036;2022-08-04T07:49:01;8.13;;;2.50;;
28353;SDS011;15603;50.878;8.036;2022-08-04T07:51:29;8.40;;;2.97;;
28353;SDS011;15603;50.878;8.036;2022-08-04T07:53:57;6.07;;;2.00;;
28353;SDS011;15603;50.878;8.036;2022-08-04T07:56:25;4.25;;;1.80;;
28353;SDS011;15603;50.878;8.036;2022-08-04T07:58:54;10.95;;;1.77;;
28353;SDS011;15603;50.878;8.036;2022-08-04T08:01:22;4.88;;;1.33;;
28353;SDS011;15603;50.878;8.036;2022-08-04T08:03:50;4.60;;;2.00;;
28353;SDS011;15603;50.878;8.036;2022-08-04T08:06:19;10.73;;;1.83;;
28353;SDS011;15603;50.878;8.036;2022-08-04T08:08:59;7.05;;;2.05;;
28353;SDS011;15603;50.878;8.036;2022-08-04T08:11:43;9.02;;;1.52;;
28353;SDS011;15603;50.878;8.036;2022-08-04T08:14:33;7.45;;;1.90;;
28353;SDS011;15603;50.878;8.036;2022-08-04T08:17:02;4.20;;;1.52;;
28353;SDS011;15603;50.878;8.036;2022-08-04T08:19:32;3.22;;;1.63;;
28353;SDS011;15603;50.878;8.036;2022-08-04T08:22:00;2.00;;;1.23;;
28353;SDS011;15603;50.878;8.036;2022-08-04T08:24:28;7.90;;;2.15;;
28353;SDS011;15603;50.878;8.036;2022-08-04T08:26:57;12.52;;;2.10;;
28353;SDS011;15603;50.878;8.036;2022-08-04T08:29:26;8.05;;;2.15;;
28353;SDS011;15603;50.878;8.036;2022-08-04T08:31:55;6.60;;;3.25;;
28353;SDS011;15603;50.878;8.036;2022-08-04T08:34:28;13.25;;;1.60;;
28353;SDS011;15603;50.878;8.036;2022-08-04T08:37:05;4.30;;;1.95;;
28353;SDS011;15603;50.878;8.036;2022-08-04T08:39:41;7.60;;;2.25;;
28353;SDS011;15603;50.878;8.036;2022-08-04T08:42:21;3.28;;;1.70;;
28353;SDS011;15603;50.878;8.036;2022-08-04T08:51:26;3.97;;;1.67;;
28353;SDS011;15603;50.878;8.036;2022-08-04T08:54:23;7.72;;;1.58;;
28353;SDS011;15603;50.878;8.036;2022-08-04T09:00:06;4.80;;;1.35;;
28353;SDS011;15603;50.878;8.036;2022-08-04T09:11:21;7.07;;;2.03;;
28353;SDS011;15603;50.878;8.036;2022-08-04T09:19:22;3.50;;;1.10;;
28353;SDS011;15603;50.878;8.036;2022-08-04T09:22:10;3.03;;;1.48;;
28353;SDS011;15603;50.878;8.036;2022-08-04T09:27:34;1.77;;;1.00;;
28353;SDS011;15603;50.878;8.036;2022-08-04T09:30:05;5.05;;;1.00;;
28353;SDS011;15603;50.878;8.036;2022-08-04T09:35:09;4.82;;;1.33;;
28353;SDS011;15603;50.878;8.036;2022-08-04T09:38:32;1.13;;;1.00;;
28353;SDS011;15603;50.878;8.036;2022-08-04T09:43:43;0.85;;;0.77;;
28353;SDS011;15603;50.878;8.036;2022-08-04T09:46:43;4.25;;;0.80;;
28353;SDS011;15603;50.878;8.036;2022-08-04T09:49:24;6.35;;;1.10;;
28353;SDS011;15603;50.878;8.036;2022-08-04T09:52:05;3.47;;;1.02;;
28353;SDS011;15603;50.878;8.036;2022-08-04T09:54:49;0.75;;;0.70;;
28353;SDS011;15603;50.878;8.036;2022-08-04T09:57:34;0.95;;;0.95;;
28353;SDS011;15603;50.878;8.036;2022-08-04T10:00:12;2.10;;;0.98;;
28353;SDS011;15603;50.878;8.036;2022-08-04T10:02:46;1.80;;;0.60;;
28353;SDS011;15603;50.878;8.036;2022-08-04T10:05:22;3.25;;;0.82;;
28353;SDS011;15603;50.878;8.036;2022-08-04T10:14:01;1.00;;;0.70;;
28353;SDS011;15603;50.878;8.036;2022-08-04T10:16:45;3.22;;;0.90;;
28353;SDS011;15603;50.878;8.036;2022-08-04T10:19:23;2.15;;;0.80;;
28353;SDS011;15603;50.878;8.036;2022-08-04T10:25:12;3.13;;;0.90;;
28353;SDS011;15603;50.878;8.036;2022-08-04T10:28:11;1.58;;;0.70;;
28353;SDS011;15603;50.878;8.036;2022-08-04T10:30:44;0.90;;;0.70;;
28353;SDS011;15603;50.878;8.036;2022-08-04T10:36:00;4.80;;;0.90;;
28353;SDS011;15603;50.878;8.036;2022-08-04T10:38:41;3.65;;;0.50;;
28353;SDS011;15603;50.878;8.036;2022-08-04T10:41:12;1.40;;;0.73;;
28353;SDS011;15603;50.878;8.036;2022-08-04T10:46:56;1.58;;;0.85;;
28353;SDS011;15603;50.878;8.036;2022-08-04T10:49:32;2.85;;;0.82;;
28353;SDS011;15603;50.878;8.036;2022-08-04T10:57:29;8.55;;;0.68;;
28353;SDS011;15603;50.878;8.036;2022-08-04T11:00:04;3.85;;;1.00;;
28353;SDS011;15603;50.878;8.036;2022-08-04T11:05:40;1.60;;;0.80;;
28353;SDS011;15603;50.878;8.036;2022-08-04T11:10:58;1.50;;;0.60;;
28353;SDS011;15603;50.878;8.036;2022-08-04T11:13:32;2.95;;;0.77;;
28353;SDS011;15603;50.878;8.036;2022-08-04T11:16:15;2.38;;;0.88;;
28353;SDS011;15603;50.878;8.036;2022-08-04T11:18:48;1.25;;;0.60;;
28353;SDS011;15603;50.878;8.036;2022-08-04T11:21:19;5.45;;;1.00;;
28353;SDS011;15603;50.878;8.036;2022-08-04T11:26:58;1.42;;;1.10;;
28353;SDS011;15603;50.878;8.036;2022-08-04T11:29:37;23.35;;;0.98;;
28353;SDS011;15603;50.878;8.036;2022-08-04T11:32:13;2.92;;;0.75;;
28353;SDS011;15603;50.878;8.036;2022-08-04T11:34:46;3.38;;;0.98;;
28353;SDS011;15603;50.878;8.036;2022-08-04T11:37:22;0.73;;;0.70;;
28353;SDS011;15603;50.878;8.036;2022-08-04T11:39:58;6.97;;;0.90;;
28353;SDS011;15603;50.878;8.036;2022-08-04T11:42:30;3.70;;;0.70;;
28353;SDS011;15603;50.878;8.036;2022-08-04T11:45:06;4.43;;;0.60;;
28353;SDS011;15603;50.878;8.036;2022-08-04T11:47:40;4.25;;;0.80;;
28353;SDS011;15603;50.878;8.036;2022-08-04T11:50:17;5.78;;;0.70;;
28353;SDS011;15603;50.878;8.036;2022-08-04T11:52:53;1.55;;;0.80;;
28353;SDS011;15603;50.878;8.036;2022-08-04T11:55:24;2.17;;;0.60;;
28353;SDS011;15603;50.878;8.036;2022-08-04T11:57:53;0.70;;;0.68;;
28353;SDS011;15603;50.878;8.036;2022-08-04T12:00:21;1.88;;;0.60;;
28353;SDS011;15603;50.878;8.036;2022-08-04T12:02:59;9.00;;;0.77;;
28353;SDS011;15603;50.878;8.036;2022-08-04T12:05:35;2.70;;;0.73;;
28353;SDS011;15603;50.878;8.036;2022-08-04T12:11:42;1.27;;;0.68;;
28353;SDS011;15603;50.878;8.036;2022-08-04T12:14:25;4.03;;;0.50;;
28353;SDS011;15603;50.878;8.036;2022-08-04T12:16:57;2.08;;;0.88;;
28353;SDS011;15603;50.878;8.036;2022-08-04T12:22:36;5.68;;;0.60;;
28353;SDS011;15603;50.878;8.036;2022-08-04T12:25:11;3.53;;;1.00;;
28353;SDS011;15603;50.878;8.036;2022-08-04T12:30:17;6.05;;;0.68;;
28353;SDS011;15603;50.878;8.036;2022-08-04T12:33:11;6.75;;;1.05;;
28353;SDS011;15603;50.878;8.036;2022-08-04T12:35:54;1.67;;;0.70;;
28353;SDS011;15603;50.878;8.036;2022-08-04T12:38:39;0.47;;;0.43;;
28353;SDS011;15603;50.878;8.036;2022-08-04T12:41:13;7.18;;;0.90;;
28353;SDS011;15603;50.878;8.036;2022-08-04T12:43:47;2.85;;;0.70;;
28353;SDS011;15603;50.878;8.036;2022-08-04T12:46:23;5.80;;;0.70;;
28353;SDS011;15603;50.878;8.036;2022-08-04T12:48:52;10.82;;;0.60;;
28353;SDS011;15603;50.878;8.036;2022-08-04T12:51:26;1.75;;;0.70;;
28353;SDS011;15603;50.878;8.036;2022-08-04T12:54:15;2.30;;;0.80;;
28353;SDS011;15603;50.878;8.036;2022-08-04T12:56:58;9.60;;;0.63;;
28353;SDS011;15603;50.878;8.036;2022-08-04T12:59:27;4.38;;;0.73;;
28353;SDS011;15603;50.878;8.036;2022-08-04T13:01:54;2.03;;;0.90;;
28353;SDS011;15603;50.878;8.036;2022-08-04T13:07:25;2.60;;;0.60;;
28353;SDS011;15603;50.878;8.036;2022-08-04T13:10:05;1.38;;;0.82;;
28353;SDS011;15603;50.878;8.036;2022-08-04T13:12:37;0.73;;;0.50;;
28353;SDS011;15603;50.878;8.036;2022-08-04T13:15:24;2.13;;;1.00;;
28353;SDS011;15603;50.878;8.036;2022-08-04T13:17:57;1.08;;;0.60;;
28353;SDS011;15603;50.878;8.036;2022-08-04T13:20:29;3.95;;;0.90;;
28353;SDS011;15603;50.878;8.036;2022-08-04T13:25:48;0.80;;;0.50;;
28353;SDS011;15603;50.878;8.036;2022-08-04T13:28:38;1.30;;;0.65;;
28353;SDS011;15603;50.878;8.036;2022-08-04T13:31:10;2.45;;;0.77;;
28353;SDS011;15603;50.878;8.036;2022-08-04T13:33:44;3.20;;;1.00;;
28353;SDS011;15603;50.878;8.036;2022-08-04T13:36:15;0.87;;;0.60;;
28353;SDS011;15603;50.878;8.036;2022-08-04T13:38:54;3.17;;;0.90;;
28353;SDS011;15603;50.878;8.036;2022-08-04T13:41:24;2.75;;;0.95;;
28353;SDS011;15603;50.878;8.036;2022-08-04T13:43:58;2.72;;;0.93;;
28353;SDS011;15603;50.878;8.036;2022-08-04T13:46:46;3.65;;;0.90;;
28353;SDS011;15603;50.878;8.036;2022-08-04T13:49:17;3.85;;;0.90;;
28353;SDS011;15603;50.878;8.036;2022-08-04T13:52:06;2.25;;;0.98;;
28353;SDS011;15603;50.878;8.036;2022-08-04T13:57:10;3.03;;;1.02;;
28353;SDS011;15603;50.878;8.036;2022-08-04T13:59:59;7.55;;;1.05;;
28353;SDS011;15603;50.878;8.036;2022-08-04T14:02:33;2.97;;;1.05;;
28353;SDS011;15603;50.878;8.036;2022-08-04T14:05:20;3.40;;;0.93;;
28353;SDS011;15603;50.878;8.036;2022-08-04T14:08:08;6.38;;;1.02;;
28353;SDS011;15603;50.878;8.036;2022-08-04T14:10:40;9.77;;;0.60;;
28353;SDS011;15603;50.878;8.036;2022-08-04T14:13:08;6.07;;;0.75;;
28353;SDS011;15603;50.878;8.036;2022-08-04T14:18:28;1.17;;;0.70;;
28353;SDS011;15603;50.878;8.036;2022-08-04T14:21:07;2.78;;;0.70;;
28353;SDS011;15603;50.878;8.036;2022-08-04T14:23:37;1.23;;;0.75;;
28353;SDS011;15603;50.878;8.036;2022-08-04T14:26:14;3.42;;;0.93;;
28353;SDS011;15603;50.878;8.036;2022-08-04T14:28:44;3.03;;;0.93;;
28353;SDS011;15603;50.878;8.036;2022-08-04T14:31:31;6.35;;;1.05;;
28353;SDS011;15603;50.878;8.036;2022-08-04T14:33:58;3.45;;;0.88;;
28353;SDS011;15603;50.878;8.036;2022-08-04T14:36:38;3.25;;;0.77;;
28353;SDS011;15603;50.878;8.036;2022-08-04T14:39:39;2.00;;;0.80;;
28353;SDS011;15603;50.878;8.036;2022-08-04T14:42:44;2.60;;;1.10;;
28353;SDS011;15603;50.878;8.036;2022-08-04T14:45:29;1.73;;;0.80;;
28353;SDS011;15603;50.878;8.036;2022-08-04T14:48:02;6.05;;;0.70;;
28353;SDS011;15603;50.878;8.036;2022-08-04T14:53:08;2.72;;;0.77;;
28353;SDS011;15603;50.878;8.036;2022-08-04T14:55:38;2.17;;;0.90;;
28353;SDS011;15603;50.878;8.036;2022-08-04T14:58:15;2.47;;;1.02;;
28353;SDS011;15603;50.878;8.036;2022-08-04T15:01:07;10.05;;;1.00;;
28353;SDS011;15603;50.878;8.036;2022-08-04T15:03:44;2.17;;;1.02;;
28353;SDS011;15603;50.878;8.036;2022-08-04T15:06:22;3.92;;;0.77;;
28353;SDS011;15603;50.878;8.036;2022-08-04T15:08:53;2.88;;;0.95;;
28353;SDS011;15603;50.878;8.036;2022-08-04T15:11:22;4.35;;;1.08;;
28353;SDS011;15603;50.878;8.036;2022-08-04T15:13:51;4.85;;;0.88;;
28353;SDS011;15603;50.878;8.036;2022-08-04T15:16:19;2.47;;;1.42;;
28353;SDS011;15603;50.878;8.036;2022-08-04T15:18:47;1.52;;;0.57;;
28353;SDS011;15603;50.878;8.036;2022-08-04T15:21:15;0.85;;;0.50;;
28353;SDS011;15603;50.878;8.036;2022-08-04T15:23:43;6.28;;;0.70;;
28353;SDS011;15603;50.878;8.036;2022-08-04T15:26:11;1.65;;;1.02;;
28353;SDS011;15603;50.878;8.036;2022-08-04T15:28:43;3.50;;;0.85;;
28353;SDS011;15603;50.878;8.036;2022-08-04T15:31:16;3.08;;;0.85;;
28353;SDS011;15603;50.878;8.036;2022-08-04T15:34:06;2.08;;;0.80;;
28353;SDS011;15603;50.878;8.036;2022-08-04T15:39:10;8.52;;;0.90;;
28353;SDS011;15603;50.878;8.036;2022-08-04T15:47:20;2.22;;;0.70;;
28353;SDS011;15603;50.878;8.036;2022-08-04T15:55:36;2.25;;;1.30;;
28353;SDS011;15603;50.878;8.036;2022-08-04T15:58:06;1.27;;;0.60;;
28353;SDS011;15603;50.878;8.036;2022-08-04T16:16:28;1.77;;;0.93;;
28353;SDS011;15603;50.878;8.036;2022-08-04T16:21:34;6.05;;;0.98;;
28353;SDS011;15603;50.878;8.036;2022-08-04T16:26:57;3.13;;;0.80;;
28353;SDS011;15603;50.878;8.036;2022-08-04T16:32:09;2.90;;;1.00;;
28353;SDS011;15603;50.878;8.036;2022-08-04T16:34:52;4.50;;;1.30;;
28353;SDS011;15603;50.878;8.036;2022-08-04T16:37:32;2.30;;;1.20;;
28353;SDS011;15603;50.878;8.036;2022-08-04T16:43:06;4.15;;;1.30;;
28353;SDS011;15603;50.878;8.036;2022-08-04T16:45:40;7.30;;;1.17;;
28353;SDS011;15603;50.878;8.036;2022-08-04T16:48:11;1.75;;;0.98;;
28353;SDS011;15603;50.878;8.036;2022-08-04T16:50:53;2.50;;;1.10;;
28353;SDS011;15603;50.878;8.036;2022-08-04T16:53:23;3.83;;;1.35;;
28353;SDS011;15603;50.878;8.036;2022-08-04T16:56:12;5.72;;;1.58;;
28353;SDS011;15603;50.878;8.036;2022-08-04T16:58:40;14.85;;;1.33;;
28353;SDS011;15603;50.878;8.036;2022-08-04T17:01:20;5.50;;;1.30;;
28353;SDS011;15603;50.878;8.036;2022-08-04T17:04:00;3.25;;;1.05;;
28353;SDS011;15603;50.878;8.036;2022-08-04T17:06:37;4.95;;;1.73;;
28353;SDS011;15603;50.878;8.036;2022-08-04T17:09:13;6.28;;;1.45;;
28353;SDS011;15603;50.878;8.036;2022-08-04T17:11:43;11.82;;;1.40;;
28353;SDS011;15603;50.878;8.036;2022-08-04T17:14:11;6.68;;;1.45;;
28353;SDS011;15603;50.878;8.036;2022-08-04T17:16:41;8.73;;;1.30;;
28353;SDS011;15603;50.878;8.036;2022-08-04T17:19:09;8.82;;;1.42;;
28353;SDS011;15603;50.878;8.036;2022-08-04T17:21:53;3.70;;;1.52;;
28353;SDS011;15603;50.878;8.036;2022-08-04T17:24:30;5.10;;;1.63;;
28353;SDS011;15603;50.878;8.036;2022-08-04T17:26:59;8.88;;;2.17;;
28353;SDS011;15603;50.878;8.036;2022-08-04T17:29:26;6.80;;;1.73;;
28353;SDS011;15603;50.878;8.036;2022-08-04T17:32:17;21.05;;;2.08;;
28353;SDS011;15603;50.878;8.036;2022-08-04T17:34:48;5.88;;;1.20;;
28353;SDS011;15603;50.878;8.036;2022-08-04T17:37:16;11.55;;;1.48;;
28353;SDS011;15603;50.878;8.036;2022-08-04T17:40:05;3.58;;;1.38;;
28353;SDS011;15603;50.878;8.036;2022-08-04T17:42:36;3.70;;;1.10;;
28353;SDS011;15603;50.878;8.036;2022-08-04T17:45:11;19.00;;;3.35;;
28353;SDS011;15603;50.878;8.036;2022-08-04T17:47:59;4.40;;;1.08;;
28353;SDS011;15603;50.878;8.036;2022-08-04T17:50:29;3.13;;;1.73;;
28353;SDS011;15603;50.878;8.036;2022-08-04T17:53:03;8.43;;;1.25;;
28353;SDS011;15603;50.878;8.036;2022-08-04T17:55:39;6.13;;;1.25;;
28353;SDS011;15603;50.878;8.036;2022-08-04T17:58:11;2.65;;;1.00;;
28353;SDS011;15603;50.878;8.036;2022-08-04T18:00:57;9.55;;;1.58;;
28353;SDS011;15603;50.878;8.036;2022-08-04T18:03:45;8.10;;;1.20;;
28353;SDS011;15603;50.878;8.036;2022-08-04T18:06:20;3.95;;;1.02;;
28353;SDS011;15603;50.878;8.036;2022-08-04T18:08:52;6.90;;;1.05;;
28353;SDS011;15603;50.878;8.036;2022-08-04T18:11:24;7.72;;;1.77;;
28353;SDS011;15603;50.878;8.036;2022-08-04T18:14:07;3.92;;;1.15;;
28353;SDS011;15603;50.878;8.036;2022-08-04T18:16:43;7.53;;;1.95;;
28353;SDS011;15603;50.878;8.036;2022-08-04T18:19:12;5.45;;;1.40;;
28353;SDS011;15603;50.878;8.036;2022-08-04T18:21:41;6.78;;;1.88;;
28353;SDS011;15603;50.878;8.036;2022-08-04T18:24:27;6.88;;;1.67;;
28353;SDS011;15603;50.878;8.036;2022-08-04T18:27:20;16.73;;;1.70;;
28353;SDS011;15603;50.878;8.036;2022-08-04T18:29:50;6.28;;;1.40;;
28353;SDS011;15603;50.878;8.036;2022-08-04T18:32:38;6.32;;;1.42;;
28353;SDS011;15603;50.878;8.036;2022-08-04T18:35:25;10.52;;;1.35;;
28353;SDS011;15603;50.878;8.036;2022-08-04T18:38:14;5.20;;;1.40;;
28353;SDS011;15603;50.878;8.036;2022-08-04T18:40:49;5.10;;;1.30;;
28353;SDS011;15603;50.878;8.036;2022-08-04T18:43:20;7.90;;;1.50;;
28353;SDS011;15603;50.878;8.036;2022-08-04T18:46:06;3.10;;;1.23;;
28353;SDS011;15603;50.878;8.036;2022-08-04T18:48:40;2.70;;;1.40;;
28353;SDS011;15603;50.878;8.036;2022-08-04T18:51:11;3.33;;;1.02;;
28353;SDS011;15603;50.878;8.036;2022-08-04T18:53:56;3.45;;;1.33;;
28353;SDS011;15603;50.878;8.036;2022-08-04T18:56:25;6.00;;;1.33;;
28353;SDS011;15603;50.878;8.036;2022-08-04T18:59:13;2.65;;;1.23;;
28353;SDS011;15603;50.878;8.036;2022-08-04T19:01:45;4.18;;;1.30;;
28353;SDS011;15603;50.878;8.036;2022-08-04T19:04:32;2.38;;;1.50;;
28353;SDS011;15603;50.878;8.036;2022-08-04T19:07:03;9.75;;;1.38;;
28353;SDS011;15603;50.878;8.036;2022-08-04T19:09:51;9.43;;;1.30;;
28353;SDS011;15603;50.878;8.036;2022-08-04T19:12:24;3.25;;;1.08;;
28353;SDS011;15603;50.878;8.036;2022-08-04T19:14:54;2.00;;;1.20;;
28353;SDS011;15603;50.878;8.036;2022-08-04T19:17:34;5.25;;;1.38;;
28353;SDS011;15603;50.878;8.036;2022-08-04T19:20:18;7.60;;;1.70;;
28353;SDS011;15603;50.878;8.036;2022-08-04T19:22:52;4.55;;;1.50;;
28353;SDS011;15603;50.878;8.036;2022-08-04T19:25:40;8.60;;;1.50;;
28353;SDS011;15603;50.878;8.036;2022-08-04T19:28:28;8.50;;;2.13;;
28353;SDS011;15603;50.878;8.036;2022-08-04T19:31:04;2.95;;;1.33;;
28353;SDS011;15603;50.878;8.036;2022-08-04T19:33:33;5.85;;;1.75;;
28353;SDS011;15603;50.878;8.036;2022-08-04T19:36:21;2.22;;;1.30;;
28353;SDS011;15603;50.878;8.036;2022-08-04T19:38:55;4.60;;;1.38;;
28353;SDS011;15603;50.878;8.036;2022-08-04T19:41:24;5.32;;;1.52;;
28353;SDS011;15603;50.878;8.036;2022-08-04T19:43:52;6.00;;;1.38;;
28353;SDS011;15603;50.878;8.036;2022-08-04T19:46:20;10.98;;;2.45;;
28353;SDS011;15603;50.878;8.036;2022-08-04T19:48:51;4.32;;;1.65;;
28353;SDS011;15603;50.878;8.036;2022-08-04T19:51:27;6.63;;;1.60;;
28353;SDS011;15603;50.878;8.036;2022-08-04T19:53:56;6.95;;;2.17;;